Time;durP1;ratioP1;P1;durP2;ratioP2;P2;SDS_P1;SDS_P2;PMS_P1;PMS_P2;Temp;Humidity;BMP_temperature;BMP_pressure;BME280_temperature;BME280_humidity;BME280_pressure;Samples;Min_cycle;Max_cycle;Signal;HPM_P1;HPM_P2
2022/06/25 00:00:32;;;;;;;19.08;14.98;;;;;;;18.45;100.00;97692.88;2628401;28;20051;-79
2022/06/25 00:01:54;;;;;;;18.17;14.95;;;;;;;18.44;100.00;97689.38;2628588;28;20054;-78
2022/06/25 00:03:10;;;;;;;18.80;15.57;;;;;;;18.58;100.00;97683.06;2627502;28;20040;-78
2022/06/25 00:06:00;;;;;;;16.00;14.40;;;;;;;18.68;100.00;97674.44;2628157;28;20048;-78
2022/06/25 00:07:15;;;;;;;17.85;15.95;;;;;;;18.68;100.00;97674.44;2628399;28;20072;-77
2022/06/25 00:08:32;;;;;;;20.38;14.80;;;;;;;18.71;100.00;97672.38;2628432;28;20051;-78
2022/06/25 00:09:48;;;;;;;18.38;16.33;;;;;;;18.72;100.00;97673.25;2628153;28;20060;-80
2022/06/25 00:11:05;;;;;;;17.55;15.27;;;;;;;18.73;100.00;97669.63;2628371;28;20048;-78
2022/06/25 00:12:32;;;;;;;17.58;15.10;;;;;;;18.73;100.00;97673.16;2628300;28;20051;-77
2022/06/25 00:13:48;;;;;;;18.98;15.68;;;;;;;18.71;100.00;97676.88;2628466;28;20134;-78
2022/06/25 00:15:06;;;;;;;20.05;16.55;;;;;;;18.73;100.00;97680.25;2628329;28;20497;-78
2022/06/25 00:16:22;;;;;;;17.20;15.43;;;;;;;18.75;100.00;97673.03;2628400;28;20056;-80
2022/06/25 00:17:37;;;;;;;18.88;15.82;;;;;;;18.76;100.00;97669.41;2628070;28;20413;-77
2022/06/25 00:18:53;;;;;;;17.95;15.75;;;;;;;18.75;100.00;97673.88;2628146;28;20581;-77
2022/06/25 00:20:09;;;;;;;18.58;15.90;;;;;;;18.71;100.00;97672.38;2628229;28;20593;-77
2022/06/25 00:21:25;;;;;;;17.60;15.45;;;;;;;18.69;100.00;97669.00;2628096;28;20062;-77
2022/06/25 00:22:40;;;;;;;17.63;15.70;;;;;;;18.68;100.00;97669.97;2628118;28;20156;-78
2022/06/25 00:23:56;;;;;;;18.10;16.20;;;;;;;18.66;100.00;97660.47;2628078;28;20105;-77
2022/06/25 00:25:12;;;;;;;17.15;15.45;;;;;;;18.68;100.00;97671.78;2627824;28;20153;-76
2022/06/25 00:26:27;;;;;;;19.58;15.52;;;;;;;18.69;100.00;97670.84;2628272;28;20048;-79
2022/06/25 00:27:43;;;;;;;19.52;15.80;;;;;;;18.68;100.00;97666.50;2627961;28;20690;-78
2022/06/25 00:28:58;;;;;;;17.73;15.82;;;;;;;18.69;100.00;97669.00;2628071;28;20044;-77
2022/06/25 00:30:14;;;;;;;17.63;15.27;;;;;;;18.66;100.00;97666.59;2627770;28;20498;-77
2022/06/25 00:31:30;;;;;;;19.77;17.10;;;;;;;18.64;100.00;97666.69;2628073;28;20044;-78
2022/06/25 00:32:45;;;;;;;19.92;16.55;;;;;;;18.69;100.00;97674.31;2628152;28;20109;-78
2022/06/25 00:34:01;;;;;;;17.92;15.77;;;;;;;18.70;100.00;97670.69;2628406;28;20059;-77
2022/06/25 00:35:17;;;;;;;17.15;15.27;;;;;;;18.70;100.00;97683.97;2627736;28;20102;-78
2022/06/25 00:36:32;;;;;;;19.33;15.52;;;;;;;18.67;100.00;97681.53;2627931;28;20056;-78
2022/06/25 00:37:48;;;;;;;18.77;15.18;;;;;;;18.67;100.00;97681.53;2627873;28;20911;-78
2022/06/25 00:39:04;;;;;;;18.92;15.88;;;;;;;18.67;100.00;97686.84;2628096;28;20077;-78
2022/06/25 00:40:19;;;;;;;16.98;15.00;;;;;;;18.70;100.00;97683.97;2628141;28;20051;-77
2022/06/25 00:41:35;;;;;;;17.85;15.43;;;;;;;18.75;100.00;97692.44;2627943;28;20047;-78
2022/06/25 00:42:50;;;;;;;19.08;16.15;;;;;;;18.75;100.00;97689.78;2627726;28;20090;-78
2022/06/25 00:44:09;;;;;;;16.70;14.93;;;;;;;18.76;100.00;97694.13;2627713;28;20109;-79
2022/06/25 00:45:25;;;;;;;18.02;15.07;;;;;;;18.73;100.00;97688.19;2627888;28;20080;-78
2022/06/25 00:46:41;;;;;;;18.27;15.38;;;;;;;18.73;100.00;97690.84;2627832;28;20619;-79
2022/06/25 00:47:56;;;;;;;18.60;15.40;;;;;;;18.74;100.00;97697.84;2627637;28;20048;-78
2022/06/25 00:49:12;;;;;;;17.88;15.48;;;;;;;18.79;100.00;97695.72;2627871;28;20048;-79
2022/06/25 00:50:27;;;;;;;20.15;14.90;;;;;;;18.87;100.00;97693.31;2627745;28;20079;-77
2022/06/25 00:51:47;;;;;;;19.23;15.55;;;;;;;18.88;100.00;97702.97;2627960;28;20052;-77
2022/06/25 00:53:04;;;;;;;19.08;15.55;;;;;;;18.89;100.00;97701.19;2627610;28;20044;-78
2022/06/25 00:54:22;;;;;;;18.67;14.85;;;;;;;18.84;100.00;97692.69;2627623;28;20068;-78
2022/06/25 00:55:38;;;;;;;17.10;15.38;;;;;;;18.81;100.00;97703.53;2627424;28;20631;-78
2022/06/25 00:56:56;;;;;;;16.50;14.52;;;;;;;18.93;100.00;97710.59;2627757;28;20543;-78
2022/06/25 00:58:14;;;;;;;17.75;14.63;;;;;;;18.95;100.00;97706.00;2627808;28;20081;-78
2022/06/25 00:59:52;;;;;;;19.45;14.23;;;;;;;18.93;100.00;97707.94;2627601;28;20052;-77
2022/06/25 01:01:09;;;;;;;17.58;15.20;;;;;;;18.83;100.00;97704.28;2627571;28;20056;-78
2022/06/25 01:02:25;;;;;;;17.45;14.82;;;;;;;18.78;100.00;97707.25;2627729;28;20402;-78
2022/06/25 01:03:40;;;;;;;18.90;14.70;;;;;;;18.90;100.00;97710.81;2627883;28;20048;-78
2022/06/25 01:04:56;;;;;;;19.23;15.25;;;;;;;18.82;100.00;97715.84;2627537;28;20083;-78
2022/06/25 01:06:12;;;;;;;20.38;14.75;;;;;;;18.84;100.00;97713.91;2627362;28;20059;-78
2022/06/25 01:07:28;;;;;;;17.23;15.20;;;;;;;18.78;100.00;97707.25;2627537;28;20059;-77
2022/06/25 01:08:43;;;;;;;16.88;14.55;;;;;;;18.79;100.00;97716.94;2626935;28;20056;-79
2022/06/25 01:09:59;;;;;;;17.83;15.00;;;;;;;18.79;100.00;97711.63;2627213;28;20048;-78
2022/06/25 01:11:14;;;;;;;18.48;14.50;;;;;;;18.76;100.00;97710.03;2627637;28;20060;-78
2022/06/25 01:12:30;;;;;;;18.05;14.80;;;;;;;18.80;100.00;97707.16;2627578;28;20052;-78
2022/06/25 01:13:45;;;;;;;18.92;14.85;;;;;;;18.83;100.00;97707.78;2627660;28;20048;-78
2022/06/25 01:15:03;;;;;;;18.35;15.18;;;;;;;18.77;100.00;97708.22;2627214;28;20390;-78
2022/06/25 01:16:22;;;;;;;19.02;14.55;;;;;;;18.74;100.00;97704.00;2627260;28;20383;-78
2022/06/25 01:17:42;;;;;;;16.38;14.05;;;;;;;18.76;100.00;97704.72;2627447;28;20115;-78
2022/06/25 01:18:58;;;;;;;16.95;15.05;;;;;;;18.68;100.00;97696.47;2627917;28;20120;-78
2022/06/25 01:20:15;;;;;;;18.40;15.43;;;;;;;18.72;100.00;97705.06;2627384;28;20055;-79
2022/06/25 01:21:31;;;;;;;17.88;15.65;;;;;;;18.73;100.00;97707.63;2627390;28;20457;-79
2022/06/25 01:22:47;;;;;;;19.42;16.00;;;;;;;18.73;100.00;97710.28;2627790;28;20048;-79
2022/06/25 01:24:06;;;;;;;17.85;15.50;;;;;;;18.80;100.00;97709.81;2627267;28;20829;-82
2022/06/25 01:25:21;;;;;;;20.88;15.40;;;;;;;18.74;100.00;97708.44;2627299;28;20185;-82
2022/06/25 01:26:39;;;;;;;18.35;16.35;;;;;;;18.66;100.00;97718.78;2627452;28;20112;-79
2022/06/25 01:27:54;;;;;;;17.70;15.77;;;;;;;18.68;100.00;97715.03;2627256;28;20054;-80
2022/06/25 01:29:10;;;;;;;19.20;16.33;;;;;;;18.69;100.00;97722.03;2626557;28;20059;-79
2022/06/25 01:30:25;;;;;;;20.25;15.32;;;;;;;18.66;100.00;97729.41;2626645;28;20581;-79
2022/06/25 01:31:41;;;;;;;17.38;15.60;;;;;;;18.67;100.00;97728.44;2627177;28;20056;-80
2022/06/25 01:32:57;;;;;;;17.45;15.48;;;;;;;18.65;100.00;97731.19;2627530;28;20062;-81
2022/06/25 01:34:12;;;;;;;20.35;16.10;;;;;;;18.73;100.00;97727.97;2627364;28;20126;-80
2022/06/25 01:35:28;;;;;;;16.88;15.07;;;;;;;18.70;100.00;97729.03;2627410;28;20067;-77
2022/06/25 01:36:44;;;;;;;18.45;15.35;;;;;;;18.68;100.00;97736.25;2627129;28;20083;-81
2022/06/25 01:38:00;;;;;;;16.73;14.98;;;;;;;18.69;100.00;97735.28;2627226;28;20547;-79
2022/06/25 01:39:15;;;;;;;16.85;15.05;;;;;;;18.67;100.00;97728.44;2627253;28;20052;-80
2022/06/25 01:40:33;;;;;;;19.42;15.55;;;;;;;18.63;100.00;97738.41;2627466;28;20498;-79
2022/06/25 01:41:49;;;;;;;17.63;15.68;;;;;;;18.66;100.00;97737.34;2627257;28;20575;-78
2022/06/25 01:43:05;;;;;;;17.45;15.57;;;;;;;18.64;100.00;97735.63;2626910;28;20056;-78
2022/06/25 01:44:21;;;;;;;16.10;14.40;;;;;;;18.65;100.00;97741.78;2627177;28;20092;-79
2022/06/25 01:45:37;;;;;;;15.68;14.07;;;;;;;18.68;100.00;97741.56;2627284;28;20040;-77
2022/06/25 01:46:53;;;;;;;15.85;13.45;;;;;;;18.75;100.00;97736.66;2627387;28;20514;-79
2022/06/25 01:48:09;;;;;;;15.57;13.80;;;;;;;18.78;100.00;97742.59;2627419;28;20135;-78
2022/06/25 01:49:24;;;;;;;20.05;12.65;;;;;;;18.80;100.00;97742.50;2627166;28;20056;-78
2022/06/25 01:50:40;;;;;;;13.93;12.43;;;;;;;18.88;100.00;97744.56;2627145;28;20078;-78
2022/06/25 01:51:56;;;;;;;14.15;12.40;;;;;;;18.83;100.00;97747.56;2627087;28;20518;-79
2022/06/25 01:53:11;;;;;;;13.45;12.07;;;;;;;18.83;100.00;97747.56;2627137;28;20119;-78
2022/06/25 01:54:27;;;;;;;12.57;11.13;;;;;;;18.92;100.00;97748.69;2627261;28;20044;-79
2022/06/25 01:55:42;;;;;;;12.60;10.38;;;;;;;18.91;100.00;97747.00;2627055;28;20044;-79
2022/06/25 01:56:58;;;;;;;11.18;9.30;;;;;;;18.87;100.00;97750.84;2627012;28;20461;-79
2022/06/25 01:58:13;;;;;;;13.80;10.10;;;;;;;18.90;100.00;97756.75;2627063;28;20044;-79
2022/06/25 01:59:29;;;;;;;10.50;9.50;;;;;;;18.86;100.00;97755.28;2627266;28;20649;-78
2022/06/25 02:00:45;;;;;;;10.68;8.80;;;;;;;18.88;100.00;97758.66;2627281;28;20044;-81
2022/06/25 02:02:01;;;;;;;10.48;8.93;;;;;;;18.73;100.00;97752.69;2626895;28;20048;-78
2022/06/25 02:03:17;;;;;;;10.80;8.93;;;;;;;18.71;100.00;97757.25;2626912;28;20097;-78
2022/06/25 02:04:33;;;;;;;10.65;8.93;;;;;;;18.64;100.00;97758.66;2627347;28;20051;-78
2022/06/25 02:05:58;;;;;;;11.43;8.65;;;;;;;18.68;100.00;97762.78;2627151;28;20047;-78
2022/06/25 02:07:13;;;;;;;9.98;8.52;;;;;;;18.72;100.00;97766.06;2627129;28;20047;-78
2022/06/25 02:08:34;;;;;;;9.75;8.75;;;;;;;18.71;100.00;97762.53;2627343;28;20095;-81
2022/06/25 02:09:50;;;;;;;11.73;9.25;;;;;;;18.69;100.00;97769.75;2627282;28;20052;-78
2022/06/25 02:11:08;;;;;;;11.50;9.30;;;;;;;18.58;100.00;97773.19;2627068;28;20048;-78
2022/06/25 02:12:24;;;;;;;11.98;8.52;;;;;;;18.55;100.00;97773.44;2627238;28;20047;-78
2022/06/25 02:13:39;;;;;;;9.43;8.05;;;;;;;18.66;100.00;97777.13;2627156;28;20052;-79
2022/06/25 02:14:55;;;;;;;10.02;7.75;;;;;;;18.70;100.00;97770.63;2627367;28;20055;-78
2022/06/25 02:16:10;;;;;;;8.68;7.88;;;;;;;18.55;100.00;97772.56;2627139;28;20288;-79
2022/06/25 02:17:26;;;;;;;9.50;8.07;;;;;;;18.57;100.00;97774.16;2626896;28;20056;-79
2022/06/25 02:18:42;;;;;;;9.32;7.95;;;;;;;18.55;100.00;97777.88;2627008;28;20048;-80
2022/06/25 02:19:57;;;;;;;9.27;8.20;;;;;;;18.47;100.00;97773.13;2626894;28;20048;-79
2022/06/25 02:21:13;;;;;;;9.10;8.02;;;;;;;18.52;100.00;97780.75;2626611;28;20059;-79
2022/06/25 02:22:29;;;;;;;9.48;8.55;;;;;;;18.55;100.00;97777.88;2627141;28;20482;-79
2022/06/25 02:23:45;;;;;;;10.55;8.02;;;;;;;18.61;100.00;97777.44;2626911;28;20052;-80
2022/06/25 02:25:00;;;;;;;7.97;7.10;;;;;;;18.64;100.00;97775.41;2627028;28;20445;-79
2022/06/25 02:26:16;;;;;;;10.23;7.80;;;;;;;18.62;100.00;97772.00;2626815;28;20079;-79
2022/06/25 02:27:31;;;;;;;8.02;6.97;;;;;;;18.62;100.00;97782.63;2626752;28;20605;-79
2022/06/25 02:28:47;;;;;;;10.07;7.63;;;;;;;18.61;100.00;97780.94;2627007;28;20055;-79
2022/06/25 02:30:03;;;;;;;8.63;7.45;;;;;;;18.58;100.00;97782.97;2627074;28;20048;-78
2022/06/25 02:31:18;;;;;;;10.13;8.05;;;;;;;18.55;100.00;97780.50;2626693;28;20345;-84
2022/06/25 02:32:34;;;;;;;7.45;6.72;;;;;;;18.54;100.00;97782.34;2627303;28;20485;-79
2022/06/25 02:33:49;;;;;;;9.55;7.00;;;;;;;18.57;100.00;97778.59;2627097;28;20055;-79
2022/06/25 02:35:05;;;;;;;8.50;7.30;;;;;;;18.44;100.00;97789.25;2627173;28;20087;-80
2022/06/25 02:36:21;;;;;;;7.93;7.00;;;;;;;18.43;100.00;97779.59;2627124;28;20060;-79
2022/06/25 02:37:37;;;;;;;9.38;6.95;;;;;;;18.44;100.00;97781.28;2626819;28;20052;-81
2022/06/25 02:38:52;;;;;;;8.38;7.22;;;;;;;18.39;100.00;97784.25;2627163;28;20051;-79
2022/06/25 02:40:08;;;;;;;8.07;6.90;;;;;;;18.37;100.00;97791.47;2626633;28;20055;-79
2022/06/25 02:41:24;;;;;;;8.63;7.00;;;;;;;18.44;100.00;97790.09;2626826;28;20086;-83
2022/06/25 02:42:40;;;;;;;7.85;6.32;;;;;;;18.38;100.00;97790.53;2627278;28;20683;-79
2022/06/25 02:43:56;;;;;;;9.13;6.80;;;;;;;18.35;100.00;97793.41;2626721;28;20576;-78
2022/06/25 02:45:12;;;;;;;8.43;6.13;;;;;;;18.35;100.00;97794.22;2626703;28;20048;-79
2022/06/25 02:46:27;;;;;;;9.88;6.28;;;;;;;18.42;100.00;97799.94;2626575;28;20575;-80
2022/06/25 02:47:43;;;;;;;8.23;6.22;;;;;;;18.35;100.00;97798.69;2626456;28;20078;-78
2022/06/25 02:48:59;;;;;;;8.95;5.68;;;;;;;18.44;100.00;97800.69;2626753;28;20048;-86
2022/06/25 02:50:14;;;;;;;8.15;6.05;;;;;;;18.33;100.00;97801.44;2626994;28;20052;-82
2022/06/25 02:51:30;;;;;;;7.50;5.85;;;;;;;18.41;100.00;97805.38;2626962;28;20496;-83
2022/06/25 02:52:46;;;;;;;7.55;5.28;;;;;;;18.43;100.00;97801.63;2627099;28;20606;-80
2022/06/25 02:54:01;;;;;;;10.55;5.43;;;;;;;18.33;100.00;97803.25;2626965;28;20051;-79
2022/06/25 02:55:17;;;;;;;8.30;5.22;;;;;;;18.29;100.00;97809.72;2626870;28;20387;-79
2022/06/25 02:59:41;;;;;;;7.22;4.80;;;;;;;18.12;100.00;97797.66;2626718;28;20052;-79
2022/06/25 03:00:57;;;;;;;5.90;5.18;;;;;;;18.11;100.00;97801.25;2626965;28;20105;-79
2022/06/25 03:02:12;;;;;;;9.55;4.90;;;;;;;18.25;100.00;97801.16;2627012;28;20051;-80
2022/06/25 03:03:28;;;;;;;7.88;5.47;;;;;;;18.26;100.00;97802.84;2626186;28;20494;-79
2022/06/25 03:04:44;;;;;;;8.90;5.45;;;;;;;18.29;100.00;97801.75;2626564;28;20094;-81
2022/06/25 03:05:59;;;;;;;8.65;5.43;;;;;;;18.28;100.00;97800.06;2626763;28;20075;-80
2022/06/25 03:07:15;;;;;;;7.07;5.28;;;;;;;18.28;100.00;97797.41;2627237;28;20048;-81
2022/06/25 03:08:30;;;;;;;9.32;5.80;;;;;;;18.13;100.00;97805.47;2626954;28;20059;-79
2022/06/25 03:09:46;;;;;;;9.43;5.50;;;;;;;18.21;100.00;97803.16;2627151;28;20141;-79
2022/06/25 03:11:02;;;;;;;5.80;5.18;;;;;;;18.18;100.00;97813.13;2626745;28;20072;-80
2022/06/25 03:12:17;;;;;;;9.52;5.65;;;;;;;18.15;100.00;97806.22;2626968;28;20068;-79
2022/06/25 03:13:36;;;;;;;7.40;5.78;;;;;;;18.16;100.00;97812.38;2626865;28;20440;-80
2022/06/25 03:14:51;;;;;;;6.13;5.53;;;;;;;18.13;100.00;97813.44;2626717;28;20056;-80
2022/06/25 03:16:07;;;;;;;6.75;5.10;;;;;;;18.15;100.00;97815.97;2626763;28;20052;-79
2022/06/25 03:17:23;;;;;;;10.30;5.85;;;;;;;18.15;100.00;97808.03;2626476;28;20059;-83
2022/06/25 03:18:39;;;;;;;5.93;5.22;;;;;;;18.18;100.00;97824.56;2626474;28;20063;-81
2022/06/25 03:19:55;;;;;;;8.60;4.95;;;;;;;18.20;100.00;97813.84;2626714;28;20064;-82
2022/06/25 03:21:10;;;;;;;7.60;5.13;;;;;;;18.15;100.00;97814.16;2626765;28;20060;-82
2022/06/25 03:22:26;;;;;;;8.20;5.10;;;;;;;18.13;100.00;97816.06;2626656;28;20044;-83
2022/06/25 03:23:42;;;;;;;8.75;5.68;;;;;;;18.18;100.00;97816.63;2626884;28;20083;-80
2022/06/25 03:24:57;;;;;;;7.60;6.00;;;;;;;18.14;100.00;97816.94;2626840;28;20048;-80
2022/06/25 03:26:13;;;;;;;5.95;5.40;;;;;;;18.06;100.00;97825.41;2626630;28;20486;-80
2022/06/25 03:27:28;;;;;;;4.82;4.43;;;;;;;18.11;100.00;97820.63;2626378;28;20177;-82
2022/06/25 03:28:44;;;;;;;5.82;4.32;;;;;;;18.04;100.00;97817.56;2626724;28;20514;-81
2022/06/25 03:30:00;;;;;;;7.30;5.18;;;;;;;18.07;100.00;97821.81;2626417;28;20552;-80
2022/06/25 03:31:15;;;;;;;6.90;4.45;;;;;;;18.08;100.00;97823.50;2626388;28;20192;-83
2022/06/25 03:32:31;;;;;;;5.30;4.78;;;;;;;18.05;100.00;97818.44;2627310;28;20051;-82
2022/06/25 03:33:47;;;;;;;6.15;4.65;;;;;;;17.90;100.00;97821.13;2628968;28;20422;-81
2022/06/25 03:35:03;;;;;;;6.07;5.03;;;;;;;17.98;100.00;97825.91;2628617;28;20058;-81
2022/06/25 03:36:19;;;;;;;5.30;4.30;;;;;;;18.01;100.00;97817.75;2628610;28;20494;-84
2022/06/25 03:37:34;;;;;;;6.43;4.68;;;;;;;17.98;100.00;97822.41;2628652;28;20048;-83
2022/06/25 03:38:50;;;;;;;5.80;4.28;;;;;;;18.07;100.00;97821.81;2628323;28;20060;-80
2022/06/25 03:40:06;;;;;;;4.57;4.18;;;;;;;17.97;100.00;97828.66;2628513;28;20497;-82
2022/06/25 03:41:35;;;;;;;6.85;4.50;;;;;;;17.96;100.00;97824.31;2628582;28;20055;-81
2022/06/25 03:42:51;;;;;;;5.40;3.80;;;;;;;18.01;100.00;97827.47;2628653;28;20048;-80
2022/06/25 03:44:10;;;;;;;5.10;4.60;;;;;;;18.00;100.00;97825.78;2628664;28;20052;-83
2022/06/25 03:45:26;;;;;;;5.50;4.35;;;;;;;18.00;100.00;97828.44;2628510;28;20055;-81
2022/06/25 03:46:42;;;;;;;5.38;4.35;;;;;;;18.09;100.00;97830.50;2628227;28;20413;-82
2022/06/25 03:47:58;;;;;;;4.75;4.10;;;;;;;18.08;100.00;97828.81;2628342;28;20058;-81
2022/06/25 03:49:13;;;;;;;5.47;4.15;;;;;;;18.09;100.00;97830.50;2628707;28;20048;-82
2022/06/25 03:50:29;;;;;;;5.28;4.40;;;;;;;18.09;100.00;97835.78;2628598;28;20043;-79
2022/06/25 03:51:44;;;;;;;4.30;3.90;;;;;;;18.03;100.00;97838.88;2628554;28;20131;-79
2022/06/25 03:53:00;;;;;;;6.65;4.07;;;;;;;17.99;100.00;97845.28;2627554;28;20442;-79
2022/06/25 03:54:16;;;;;;;8.48;4.63;;;;;;;17.99;100.00;97839.97;2628000;28;20460;-81
2022/06/25 03:55:31;;;;;;;4.53;3.90;;;;;;;18.01;100.00;97833.63;2628459;28;20077;-80
2022/06/25 03:56:47;;;;;;;5.47;4.40;;;;;;;18.05;100.00;97835.16;2627912;28;20052;-79
2022/06/25 03:58:02;;;;;;;4.80;3.95;;;;;;;17.89;100.00;97837.97;2628275;28;20044;-80
2022/06/25 03:59:18;;;;;;;7.13;3.90;;;;;;;17.90;100.00;97839.69;2627945;28;20051;-80
2022/06/25 04:00:34;;;;;;;5.72;3.70;;;;;;;17.92;100.00;97835.13;2628427;28;20056;-81
2022/06/25 04:01:49;;;;;;;7.30;3.55;;;;;;;17.93;100.00;97842.13;2628695;28;20052;-81
2022/06/25 04:03:05;;;;;;;3.72;3.15;;;;;;;17.92;100.00;97840.41;2628089;28;20048;-80
2022/06/25 04:04:20;;;;;;;4.32;3.25;;;;;;;17.86;100.00;97843.47;2628461;28;20410;-81
2022/06/25 04:05:36;;;;;;;5.95;3.30;;;;;;;17.72;100.00;97848.84;2628259;28;20133;-82
2022/06/25 04:06:51;;;;;;;4.07;3.20;;;;;;;17.76;100.00;97842.41;2628320;28;20504;-87
2022/06/25 04:08:07;;;;;;;4.00;3.53;;;;;;;17.78;100.00;97851.09;2628181;28;20101;-82
2022/06/25 04:09:23;;;;;;;4.05;3.53;;;;;;;17.84;100.00;97853.31;2628511;28;20048;-81
2022/06/25 04:10:38;;;;;;;3.90;3.50;;;;;;;17.73;100.00;97845.25;2628348;28;20635;-81
2022/06/25 04:11:54;;;;;;;6.53;3.30;;;;;;;17.73;100.00;97853.19;2627909;28;20105;-86
2022/06/25 04:13:09;;;;;;;5.13;3.40;;;;;;;17.78;100.00;97851.09;2628418;28;20048;-85
2022/06/25 04:14:25;;;;;;;5.20;3.70;;;;;;;17.89;100.00;97848.56;2628192;28;20108;-81
2022/06/25 04:15:41;;;;;;;5.28;3.13;;;;;;;17.86;100.00;97850.56;2627600;28;20052;-81
2022/06/25 04:16:57;;;;;;;4.40;3.58;;;;;;;17.75;100.00;97860.09;2620917;28;20043;-80
2022/06/25 04:18:12;;;;;;;4.15;3.35;;;;;;;17.76;100.00;97853.00;2627249;28;20092;-86
2022/06/25 04:19:28;;;;;;;5.60;3.30;;;;;;;17.86;100.00;97856.69;2628182;28;20520;-80
2022/06/25 04:20:44;;;;;;;4.10;3.17;;;;;;;17.85;100.00;97857.66;2627885;28;20097;-80
2022/06/25 04:21:59;;;;;;;3.95;3.05;;;;;;;17.82;100.00;97855.22;2627978;28;20059;-80
2022/06/25 04:23:15;;;;;;;3.47;3.17;;;;;;;17.88;100.00;97865.41;2628046;28;20059;-80
2022/06/25 04:24:31;;;;;;;4.43;3.40;;;;;;;17.86;100.00;97861.16;2628156;28;20145;-80
2022/06/25 04:25:46;;;;;;;4.53;3.60;;;;;;;17.89;100.00;97855.66;2628410;28;20051;-80
2022/06/25 04:27:02;;;;;;;4.22;3.20;;;;;;;17.90;100.00;97860.88;2627972;28;20052;-79
2022/06/25 04:29:52;;;;;;;3.67;3.10;;;;;;;18.05;100.00;97866.94;2628212;28;20063;-80
2022/06/25 04:31:08;;;;;;;5.72;3.20;;;;;;;18.09;100.00;97869.38;2628217;28;20055;-80
2022/06/25 04:32:23;;;;;;;3.95;3.05;;;;;;;18.06;100.00;97865.16;2628266;28;20101;-87
2022/06/25 04:33:39;;;;;;;6.80;2.83;;;;;;;18.07;100.00;97865.03;2628190;28;20411;-82
2022/06/25 04:34:55;;;;;;;3.85;3.13;;;;;;;18.04;100.00;97867.06;2628201;28;20052;-80
2022/06/25 04:36:10;;;;;;;3.33;3.03;;;;;;;18.06;100.00;97867.78;2627690;28;20589;-80
2022/06/25 04:37:26;;;;;;;4.78;2.80;;;;;;;18.01;100.00;97864.56;2628003;28;20048;-80
2022/06/25 04:38:41;;;;;;;3.47;3.08;;;;;;;18.02;100.00;97866.25;2628007;28;20051;-80
2022/06/25 04:39:57;;;;;;;4.20;3.17;;;;;;;18.06;100.00;97873.94;2628100;28;20074;-79
2022/06/25 04:41:13;;;;;;;3.47;3.00;;;;;;;18.06;100.00;97873.09;2628004;28;20094;-79
2022/06/25 04:42:28;;;;;;;3.85;2.95;;;;;;;17.97;100.00;97876.31;2627934;28;20113;-79
2022/06/25 04:43:44;;;;;;;3.63;2.97;;;;;;;17.99;100.00;97879.72;2628011;28;20048;-80
2022/06/25 04:44:59;;;;;;;5.15;3.03;;;;;;;18.03;100.00;97878.59;2627734;28;20114;-84
2022/06/25 04:46:15;;;;;;;5.20;3.10;;;;;;;18.01;100.00;97868.06;2628196;28;20055;-82
2022/06/25 04:47:31;;;;;;;2.97;2.78;;;;;;;18.06;100.00;97873.94;2627524;28;20054;-80
2022/06/25 04:48:46;;;;;;;5.50;3.00;;;;;;;18.10;100.00;97873.75;2627588;28;20043;-84
2022/06/25 04:50:02;;;;;;;5.20;3.47;;;;;;;18.05;100.00;97876.69;2628148;28;20060;-80
2022/06/25 04:51:18;;;;;;;3.42;3.13;;;;;;;18.10;100.00;97879.03;2627633;28;20052;-80
2022/06/25 04:52:34;;;;;;;3.15;2.90;;;;;;;18.04;100.00;97882.94;2627822;28;20502;-80
2022/06/25 04:53:56;;;;;;;4.45;3.28;;;;;;;18.11;100.00;97881.56;2627731;28;20074;-80
2022/06/25 04:55:12;;;;;;;4.57;3.30;;;;;;;18.14;100.00;97877.88;2627474;28;20055;-80
2022/06/25 04:56:29;;;;;;;3.30;3.05;;;;;;;18.15;100.00;97883.03;2627256;28;20059;-79
2022/06/25 04:57:45;;;;;;;7.75;3.22;;;;;;;18.08;100.00;97881.78;2627525;28;20073;-80
2022/06/25 04:59:00;;;;;;;4.80;3.00;;;;;;;18.11;100.00;97886.03;2627640;28;20074;-79
2022/06/25 05:00:16;;;;;;;3.53;2.95;;;;;;;18.03;100.00;97887.38;2627362;28;20466;-82
2022/06/25 05:01:32;;;;;;;3.25;2.78;;;;;;;18.02;100.00;97887.44;2627784;28;20105;-81
2022/06/25 05:02:47;;;;;;;3.17;2.50;;;;;;;18.03;100.00;97890.03;2626880;28;20048;-80
2022/06/25 05:04:03;;;;;;;5.55;3.00;;;;;;;17.95;100.00;97892.34;2626638;28;20993;-79
2022/06/25 05:05:19;;;;;;;4.35;2.78;;;;;;;18.03;100.00;97894.50;2627443;28;20366;-80
2022/06/25 05:06:35;;;;;;;3.40;2.92;;;;;;;17.96;100.00;97895.81;2627128;28;20240;-79
2022/06/25 05:07:50;;;;;;;5.35;3.30;;;;;;;18.03;100.00;97905.94;2627063;28;20427;-79
2022/06/25 05:09:06;;;;;;;4.78;3.03;;;;;;;18.04;100.00;97902.31;2626841;28;20040;-79
2022/06/25 05:10:24;;;;;;;4.18;2.80;;;;;;;18.05;100.00;97911.13;2626991;28;20044;-83
2022/06/25 05:11:40;;;;;;;4.45;2.80;;;;;;;18.07;100.00;97907.41;2626209;28;20053;-80
2022/06/25 05:13:13;;;;;;;3.35;2.80;;;;;;;18.10;100.00;97908.19;2626938;28;20044;-80
2022/06/25 05:14:29;;;;;;;3.75;2.70;;;;;;;18.07;100.00;97903.94;2627589;28;20434;-80
2022/06/25 05:15:45;;;;;;;4.20;2.80;;;;;;;17.98;100.00;97905.38;2627550;28;20036;-81
2022/06/25 05:17:03;;;;;;;3.17;2.75;;;;;;;17.89;100.00;97904.19;2627296;28;20428;-81
2022/06/25 05:18:19;;;;;;;3.78;3.30;;;;;;;17.89;100.00;97906.84;2627405;28;20054;-80
2022/06/25 05:19:48;;;;;;;4.45;2.95;;;;;;;17.87;100.00;97908.72;2627337;28;20048;-79
2022/06/25 05:21:10;;;;;;;2.97;2.70;;;;;;;17.98;100.00;97918.59;2625760;28;20127;-81
2022/06/25 05:22:28;;;;;;;3.75;3.00;;;;;;;17.93;100.00;97918.91;2627036;28;20135;-83
2022/06/25 05:23:48;;;;;;;5.10;3.40;;;;;;;18.01;100.00;97926.34;2625939;28;20126;-80
2022/06/25 05:25:14;;;;;;;3.08;2.80;;;;;;;18.06;100.00;97926.06;2626444;28;20044;-81
2022/06/25 05:26:30;;;;;;;3.55;2.70;;;;;;;17.96;100.00;97933.75;2627302;28;20105;-79
2022/06/25 05:27:46;;;;;;;3.53;3.05;;;;;;;18.02;100.00;97929.81;2626425;28;20044;-80
2022/06/25 05:29:05;;;;;;;3.97;3.03;;;;;;;18.04;100.00;97925.34;2624229;28;20054;-82
2022/06/25 05:30:21;;;;;;;5.18;2.83;;;;;;;17.89;100.00;97928.03;2624370;28;20116;-80
2022/06/25 05:31:38;;;;;;;3.38;2.92;;;;;;;17.90;100.00;97927.06;2626637;28;20785;-79
2022/06/25 05:32:54;;;;;;;4.43;3.03;;;;;;;17.98;100.00;97925.69;2626388;28;20451;-83
2022/06/25 05:34:10;;;;;;;4.55;3.40;;;;;;;17.95;100.00;97923.25;2626473;28;20081;-79
2022/06/25 05:35:26;;;;;;;3.88;3.08;;;;;;;17.91;100.00;97925.25;2626427;28;20097;-84
2022/06/25 05:36:45;;;;;;;7.40;2.80;;;;;;;17.93;100.00;97920.69;2626243;28;20639;-81
2022/06/25 05:38:01;;;;;;;8.10;3.05;;;;;;;17.96;100.00;97931.09;2626515;28;20036;-86
2022/06/25 05:39:17;;;;;;;4.18;3.00;;;;;;;17.95;100.00;97924.13;2625592;28;20101;-81
2022/06/25 05:40:34;;;;;;;5.93;2.92;;;;;;;18.00;100.00;97927.28;2626489;28;20145;-82
2022/06/25 05:41:50;;;;;;;3.53;2.92;;;;;;;18.00;100.00;97937.03;2626127;28;20082;-83
2022/06/25 05:43:06;;;;;;;2.97;2.70;;;;;;;17.82;100.00;97939.13;2609194;28;20056;-81
2022/06/25 05:44:22;;;;;;;3.42;2.90;;;;;;;17.89;100.00;97935.97;2619407;28;20043;-83
2022/06/25 05:45:40;;;;;;;3.40;2.72;;;;;;;17.90;100.00;97935.00;2626657;28;20091;-81
2022/06/25 05:46:58;;;;;;;2.80;2.60;;;;;;;17.88;100.00;97939.56;2626489;28;20044;-82
2022/06/25 05:48:17;;;;;;;3.13;2.83;;;;;;;17.91;100.00;97946.44;2626690;28;20150;-85
2022/06/25 05:49:32;;;;;;;4.20;2.78;;;;;;;17.90;100.00;97947.38;2626467;28;20056;-81
2022/06/25 05:50:48;;;;;;;3.28;2.97;;;;;;;17.90;100.00;97950.03;2626208;28;20282;-86
2022/06/25 05:52:05;;;;;;;3.45;3.03;;;;;;;17.90;100.00;97944.75;2626743;28;20058;-81
2022/06/25 05:53:23;;;;;;;3.92;2.83;;;;;;;17.83;100.00;97946.13;2626577;28;20148;-83
2022/06/25 05:54:39;;;;;;;4.22;2.90;;;;;;;17.77;100.00;97939.41;2626293;28;20048;-80
2022/06/25 05:55:55;;;;;;;3.78;2.78;;;;;;;17.84;100.00;97947.81;2625932;28;20521;-81
2022/06/25 05:57:11;;;;;;;3.75;3.35;;;;;;;17.82;100.00;97947.06;2626247;28;20043;-81
2022/06/25 05:58:29;;;;;;;3.70;3.00;;;;;;;17.81;100.00;97948.84;2625671;28;20052;-82